AirNav   Pilot Hours Calculator
 
 497 users online  

7B6 Skylark Airpark
Warehouse Point, Connecticut, USA

GOING TO WAREHOUSE POINT?


FAA INFORMATION EFFECTIVE 11 AUGUST 2022

Location

FAA Identifier: 7B6
Lat/Long: 41-55-42.3000N 072-34-35.0000W
41-55.705000N 072-34.583333W
41.9284167,-72.5763889
(estimated)
Elevation: 120 ft. / 37 m (estimated)
Variation: 14W (1985)
From city: 2 miles E of WAREHOUSE POINT, CT
Time zone: UTC -4 (UTC -5 during Standard Time)
Zip code: 06088

Airport Operations

Airport use: Open to the public
Control tower: no
ARTCC: BOSTON CENTER
FSS: BRIDGEPORT FLIGHT SERVICE STATION
NOTAMs facility: BDR (NOTAM-D service available)
Attendance: DAYLIGHT HOURS
Wind indicator: yes
Segmented circle: no
Lights: ACTIVATE LIRL RWY 10/28 - 122.8.

Airport Communications

CTAF/UNICOM: 122.8
WX ASOS at BDL (5 nm W): 118.15 (860-386-3480)
WX ASOS at HFD (12 nm S): PHONE 860-527-5837
WX ASOS at BAF (15 nm NW): 127.1 (413-568-2267)
WX AWOS-AV at CT71 (17 nm SW): 129.825

Nearby radio navigation aids

VOR radial/distance  VOR name  Freq  Var
BAFr170/15.3BARNES VORTAC113.0014W
HFDr009/17.3HARTFORD VOR/DME114.9013W
CTRr156/27.4CHESTER VOR/DME115.1013W
PUTr281/32.7PUTNAM VOR/DME117.4014W
ORWr325/34.1NORWICH VOR/DME110.0014W
MADr021/37.2MADISON VOR/DME110.4013W

Airport Services

Fuel available: 100LL
100LL:CALL FIRST FOR AVAILABILITY OF FUEL.
Parking: hangars and tiedowns
Airframe service: MAJOR
Powerplant service: MAJOR
Bottled oxygen: NONE
Bulk oxygen: NONE

Runway Information

Runway 10/28

Dimensions: 3242 x 60 ft. / 988 x 18 m
Surface: asphalt, in excellent condition
Weight bearing capacity: 
Single wheel: 9.0
Runway edge lights: non-standard
RY 10/28 FIRST 175 FT EAST END UNLGTD.
RUNWAY 10  RUNWAY 28
Latitude: 41-55.692500N41-55.716333N
Longitude: 072-34.941000W072-34.226667W
Traffic pattern: leftleft
Displaced threshold: 600 ft.175 ft.
Markings: none, in poor conditionnone, in poor condition
Runway end identifier lights: nono
Obstructions: 30 ft. pline, 250 ft. from runway, 150 ft. right of centerline, 1:1 slope to clear
RY 10 APCH RATIO 11:1 TO 100 FT TREES 1119 FT FM DSPLCD THLD 100 FT R OF CNTRLN.
67 ft. trees, 266 ft. from runway, 152 ft. left of centerline, 1:1 slope to clear
+4 FT FENCE 55 FT FM RY END; +15 FT ROADWAY 65 FT FM RY END.

Airport Ownership and Management from official FAA records

Ownership: Privately-owned
Owner: SKYLARK AIRPARK, INC.
54 WELLS RD
BROADBROOK, CT 06016
Phone (413) 537-5121
Manager: WILLIAM KULLE
54 WELLS RD
BROADBROOK, CT 06016
Phone (413) 537-5121

Airport Operational Statistics

Aircraft based on the field: 62
Single engine airplanes: 60
Multi engine airplanes: 1
Ultralights: 1
    
Aircraft operations: avg 44/day *
93% local general aviation
7% transient general aviation
<1% air taxi
<1% military
* for 12-month period ending 31 March 2021

Additional Remarks

ARPT LGTS OTS INDEFLY.
NO NGT TGL.
BRING TIEDOWN ROPES
FOR CD CTC YANKEE APCH AT 860-386-3597

Instrument Procedures

There are no published instrument procedures at 7B6.

Some nearby airports with instrument procedures:

KBDL - Bradley International Airport (5 nm W)
KHFD - Hartford-Brainard Airport (12 nm S)
KBAF - Westfield-Barnes Regional Airport (15 nm NW)
KCEF - Westover Air Reserve Base/Metropolitan Airport (16 nm N)
4B8 - Robertson Field Airport (19 nm SW)
 
Loc | Ops | Rwys | IFR | FBO | Links
Com | Nav | Svcs | Stats | Notes

Silver City Flying Club
 
Area around 7B6 (Skylark Airpark)
 
Road maps at: MapQuest Bing Google
 
Aerial photo
WARNING: Photo may not be current or correct
Aerial photo of 7B6 (Skylark Airpark)
Photo by Alan Witkin
Photo taken 14-Sep-2016
looking west.

Do you have a better or more recent aerial photo of Skylark Airpark that you would like to share? If so, please send us your photo.

 
Sectional chart

 
Airport distance calculator
Flying to Skylark Airpark? Find the distance to fly.

From to 7B6

Sunrise and sunset
Times for 14-Aug-2022
 Local
(UTC-4)
 Zulu
(UTC)
Morning civil twilight05:2809:28
Sunrise05:5809:58
Sunset19:5223:52
Evening civil twilight20:2200:22

Current date and time
Zulu (UTC)  14-Aug-2022 06:31:27
Local (UTC-4)  14-Aug-2022 02:31:27
 
METAR
KBDL 
5nm W 
140551Z 00000KT 10SM FEW080 14/12 A3007 RMK AO2 SLP184 T01390117 10217 20133 58001 $
KHFD 
12nm S 
140553Z AUTO 00000KT 10SM CLR 16/13 A3007 RMK AO2 SLP182 T01560128 10233 20150 58001
KBAF 
16nm NW 
140553Z AUTO 00000KT 10SM CLR 12/11 A3008 RMK AO2 SLP184 T01220106 10217 20117 58001
KCEF 
17nm N 
140556Z AUTO 00000KT 10SM CLR 12/11 A3005 RMK AO2 SLP181 T01160105 10205 20108 58002
TAF
KBDL 
5nm W 
140540Z 1406/1512 00000KT P6SM FEW200 FM141600 29003KT P6SM FEW200 FM141900 24004KT P6SM SCT150 FM150300 17003KT P6SM BKN130 FM150900 01003KT P6SM SCT130
KBAF 
16nm NW 
140540Z 1406/1506 00000KT P6SM SKC FM141600 32003KT P6SM FEW200 FM141700 24003KT P6SM FEW200 FM150000 00000KT P6SM BKN100
KCEF 
17nm N 
140200Z 1402/1508 VRB03KT 9999 SCT085 QNH3005INS BECMG 1404/1405 00000KT 9999 SKC QNH3006INS BECMG 1414/1415 34006KT 9999 FEW060 FEW200 QNH3002INS BECMG 1417/1418 32007KT 9999 SCT070 SCT200 QNH2999INS BECMG 1421/1422 VRB03KT 9999 SCT070 SCT200 QNH3000INS TX28/1419Z TN09/1410Z LAST NO AMDS AFT 1403 NEXT 1411
NOTAMs
Click for the latest NOTAMs
NOTAMs are issued by the DoD/FAA and will open in a separate window not controlled by AirNav.

 

 
 

Would you like to see your business listed on this page?

 If your business provides an interesting product or service to pilots, flight crews, aircraft, or users of the Skylark Airpark, you should consider listing it here.  To start the listing process, click on the button below
 
Add a business
 

Other Pages about Skylark Airpark

Update a link
 
Copyright © AirNav, LLC. All rights reserved. Privacy Policy  Contact